createdAt,value
2022-11-07T00:00:07.730Z,11.27
2022-11-07T00:02:34.492Z,11.29
2022-11-07T00:05:01.997Z,11.12
2022-11-07T00:07:28.529Z,11.15
2022-11-07T00:09:54.977Z,11.06
2022-11-07T00:12:21.436Z,11.01
2022-11-07T00:14:48.481Z,11.01
2022-11-07T00:17:15.090Z,11.11
2022-11-07T00:19:41.885Z,11.16
2022-11-07T00:22:08.836Z,11.23
2022-11-07T00:24:35.319Z,11.25
2022-11-07T00:27:02.374Z,11.14
2022-11-07T00:29:28.984Z,11.05
2022-11-07T00:31:55.471Z,11.04
2022-11-07T00:34:22.254Z,11.15
2022-11-07T00:36:48.775Z,11.14
2022-11-07T00:39:15.373Z,11.33
2022-11-07T00:41:41.852Z,11.32
2022-11-07T00:44:08.313Z,11.30
2022-11-07T00:46:34.831Z,11.29
2022-11-07T00:49:01.310Z,11.40
2022-11-07T00:51:28.448Z,11.50
2022-11-07T00:53:55.402Z,11.59
2022-11-07T00:56:24.441Z,11.67
2022-11-07T00:58:55.509Z,11.59
2022-11-07T01:01:28.022Z,11.47
2022-11-07T01:03:54.978Z,11.51
2022-11-07T01:06:21.731Z,11.65
2022-11-07T01:08:48.204Z,11.81
2022-11-07T01:11:15.017Z,11.74
2022-11-07T01:13:41.852Z,11.73
2022-11-07T01:16:09.910Z,11.70
2022-11-07T01:18:36.379Z,11.79
2022-11-07T01:21:12.129Z,11.76
2022-11-07T01:23:41.673Z,11.84
2022-11-07T01:26:10.588Z,11.80
2022-11-07T01:28:37.078Z,11.83
2022-11-07T01:31:05.183Z,11.78
2022-11-07T01:33:31.989Z,11.73
2022-11-07T01:36:06.115Z,11.59
2022-11-07T01:38:33.431Z,11.53
2022-11-07T01:40:59.965Z,11.55
2022-11-07T01:44:00.046Z,11.52
2022-11-07T01:46:31.891Z,11.35
2022-11-07T01:49:04.550Z,11.23
2022-11-07T01:51:34.436Z,10.92
2022-11-07T01:54:01.406Z,10.85
2022-11-07T01:56:29.437Z,10.68
2022-11-07T01:58:56.435Z,10.54
2022-11-07T02:01:23.405Z,10.43
2022-11-07T02:03:50.266Z,10.49
2022-11-07T02:06:37.679Z,10.30
2022-11-07T02:09:04.665Z,10.17
2022-11-07T02:11:56.941Z,10.11
2022-11-07T02:14:23.411Z,9.91
2022-11-07T02:16:49.888Z,9.89
2022-11-07T02:19:37.276Z,9.84
2022-11-07T02:22:29.782Z,9.92
2022-11-07T02:24:59.359Z,9.99
2022-11-07T02:27:27.789Z,9.56
2022-11-07T02:30:24.606Z,9.62
2022-11-07T02:32:51.147Z,9.60
2022-11-07T02:35:43.339Z,9.52
2022-11-07T02:38:34.928Z,9.45
2022-11-07T02:41:12.123Z,9.37
2022-11-07T02:43:44.403Z,9.15
2022-11-07T02:46:11.982Z,9.42
2022-11-07T02:48:45.010Z,9.30
2022-11-07T02:51:11.474Z,9.15
2022-11-07T02:53:38.317Z,9.32
2022-11-07T02:56:05.192Z,9.37
2022-11-07T02:58:31.695Z,9.40
2022-11-07T03:00:58.748Z,9.47
2022-11-07T03:03:25.198Z,9.43
2022-11-07T03:05:55.022Z,9.52
2022-11-07T03:08:21.507Z,9.50
2022-11-07T03:10:47.942Z,9.54
2022-11-07T03:13:14.677Z,9.61
2022-11-07T03:15:41.325Z,9.72
2022-11-07T03:18:07.926Z,9.70
2022-11-07T03:20:34.743Z,9.67
2022-11-07T03:23:01.274Z,9.61
2022-11-07T03:25:27.770Z,9.39
2022-11-07T03:27:54.247Z,9.46
2022-11-07T03:30:20.724Z,9.38
2022-11-07T03:32:47.175Z,9.35
2022-11-07T03:35:13.834Z,9.20
2022-11-07T03:37:40.833Z,9.14
2022-11-07T03:40:07.870Z,9.22
2022-11-07T03:42:40.816Z,9.07
2022-11-07T03:45:08.309Z,9.02
2022-11-07T03:47:36.145Z,8.88
2022-11-07T03:50:03.007Z,9.02
2022-11-07T03:52:29.568Z,8.99
2022-11-07T03:54:56.089Z,8.92
2022-11-07T03:57:22.861Z,8.85
2022-11-07T03:59:49.479Z,8.73
2022-11-07T04:02:16.384Z,8.90
2022-11-07T04:04:42.906Z,8.86
2022-11-07T04:07:09.364Z,9.05
2022-11-07T04:09:35.837Z,8.88
2022-11-07T04:12:02.483Z,8.87
2022-11-07T04:14:49.031Z,8.77
2022-11-07T04:17:15.507Z,8.84
2022-11-07T04:19:42.001Z,8.82
2022-11-07T04:22:08.947Z,8.82
2022-11-07T04:24:35.550Z,8.89
2022-11-07T04:27:02.044Z,8.91
2022-11-07T04:29:28.518Z,8.91
2022-11-07T04:31:54.987Z,8.70
2022-11-07T04:34:21.454Z,8.86
2022-11-07T04:36:47.982Z,8.91
2022-11-07T04:39:14.675Z,8.67
2022-11-07T04:41:41.154Z,8.60
2022-11-07T04:44:07.827Z,8.58
2022-11-07T04:46:34.287Z,8.62
2022-11-07T04:49:00.727Z,8.62
2022-11-07T04:51:27.329Z,8.54
2022-11-07T04:53:53.840Z,8.55
2022-11-07T04:56:20.325Z,8.54
2022-11-07T04:58:46.829Z,8.65
2022-11-07T05:01:13.302Z,8.57
2022-11-07T05:03:42.016Z,8.51
2022-11-07T05:06:11.522Z,8.58
2022-11-07T05:08:37.979Z,8.56
2022-11-07T05:11:04.809Z,8.63
2022-11-07T05:13:31.262Z,8.60
2022-11-07T05:15:57.763Z,8.54
2022-11-07T05:18:24.469Z,8.44
2022-11-07T05:20:51.067Z,8.33
2022-11-07T05:23:18.113Z,8.15
2022-11-07T05:25:50.265Z,8.14
2022-11-07T05:28:31.218Z,8.13
2022-11-07T05:31:02.382Z,8.20
2022-11-07T05:33:29.366Z,8.19
2022-11-07T05:35:56.082Z,8.31
2022-11-07T05:38:22.979Z,8.39
2022-11-07T05:40:49.513Z,8.39
2022-11-07T05:43:16.392Z,8.47
2022-11-07T05:45:43.344Z,8.41
2022-11-07T05:48:11.910Z,8.18
2022-11-07T05:50:39.325Z,8.24
2022-11-07T05:53:06.293Z,8.16
2022-11-07T05:55:32.897Z,8.32
2022-11-07T05:58:05.705Z,8.30
2022-11-07T06:00:33.433Z,8.27
2022-11-07T06:02:59.977Z,8.31
2022-11-07T06:05:27.109Z,8.23
2022-11-07T06:07:53.622Z,8.44
2022-11-07T06:10:20.393Z,8.14
2022-11-07T06:12:47.005Z,8.04
2022-11-07T06:15:13.780Z,8.03
2022-11-07T06:17:40.256Z,8.11
2022-11-07T06:20:07.246Z,8.18
2022-11-07T06:22:34.022Z,8.24
2022-11-07T06:25:00.544Z,8.09
2022-11-07T06:27:26.980Z,8.19
2022-11-07T06:29:53.433Z,8.21
2022-11-07T06:32:20.328Z,8.30
2022-11-07T06:34:47.714Z,8.31
2022-11-07T06:37:14.546Z,8.21
2022-11-07T06:39:41.069Z,8.24
2022-11-07T06:42:07.517Z,8.41
2022-11-07T06:44:33.969Z,8.47
2022-11-07T06:47:00.449Z,8.61
2022-11-07T06:49:26.947Z,8.81
2022-11-07T06:51:53.452Z,8.86
2022-11-07T06:54:19.870Z,8.83
2022-11-07T06:56:46.515Z,8.94
2022-11-07T06:59:13.064Z,9.00
2022-11-07T07:01:39.641Z,9.09
2022-11-07T07:04:06.227Z,9.19
2022-11-07T07:06:32.805Z,9.36
2022-11-07T07:08:59.288Z,9.18
2022-11-07T07:11:25.828Z,9.31
2022-11-07T07:13:52.273Z,9.30
2022-11-07T07:16:21.762Z,9.43
2022-11-07T07:18:49.599Z,9.48
2022-11-07T07:21:16.140Z,9.41
2022-11-07T07:23:42.923Z,9.51
2022-11-07T07:26:13.088Z,9.55
2022-11-07T07:28:39.796Z,9.69
2022-11-07T07:31:10.845Z,9.77
2022-11-07T07:33:37.657Z,9.73
2022-11-07T07:36:04.591Z,9.88
2022-11-07T07:38:31.261Z,10.01
2022-11-07T07:40:58.378Z,10.13
2022-11-07T07:43:25.036Z,10.24
2022-11-07T07:45:57.841Z,10.29
2022-11-07T07:48:24.529Z,10.42
2022-11-07T07:50:51.380Z,10.36
2022-11-07T07:53:18.528Z,10.50
2022-11-07T07:55:45.214Z,10.53
2022-11-07T07:58:12.289Z,10.56
2022-11-07T08:00:39.231Z,10.61
2022-11-07T08:03:08.703Z,10.70
2022-11-07T08:05:35.751Z,10.80
2022-11-07T08:08:02.362Z,10.82
2022-11-07T08:10:41.996Z,10.79
2022-11-07T08:13:12.075Z,10.74
2022-11-07T08:15:38.552Z,10.36
2022-11-07T08:18:05.146Z,10.26
2022-11-07T08:20:31.829Z,10.40
2022-11-07T08:23:09.833Z,10.46
2022-11-07T08:25:39.335Z,10.66
2022-11-07T08:28:06.000Z,10.71
2022-11-07T08:30:32.689Z,10.93
2022-11-07T08:33:02.796Z,10.97
2022-11-07T08:35:32.442Z,11.13
2022-11-07T08:37:59.229Z,11.22
2022-11-07T08:40:26.585Z,11.28
2022-11-07T08:42:53.097Z,11.39
2022-11-07T08:45:19.602Z,11.50
2022-11-07T08:47:50.264Z,11.48
2022-11-07T08:50:16.767Z,11.63
2022-11-07T08:52:43.267Z,11.64
2022-11-07T08:55:10.237Z,11.69
2022-11-07T08:57:36.656Z,11.74
2022-11-07T09:00:04.197Z,11.86
2022-11-07T09:05:17.212Z,11.91
2022-11-07T09:07:44.457Z,11.83
2022-11-07T09:10:11.397Z,11.96
2022-11-07T09:12:48.393Z,11.92
2022-11-07T09:15:15.235Z,11.99
2022-11-07T09:17:41.752Z,12.08
2022-11-07T09:20:09.231Z,12.20
2022-11-07T09:22:36.355Z,12.19
2022-11-07T09:25:02.913Z,12.16
2022-11-07T09:27:29.373Z,12.22
2022-11-07T09:29:55.885Z,12.37
2022-11-07T09:32:43.424Z,12.27
2022-11-07T09:35:09.224Z,12.23
2022-11-07T09:37:41.436Z,12.38
2022-11-07T09:40:20.020Z,12.47
2022-11-07T09:42:53.849Z,12.54
2022-11-07T09:45:20.379Z,12.73
2022-11-07T09:47:56.539Z,12.89
2022-11-07T09:50:43.755Z,13.10
2022-11-07T09:53:20.779Z,13.22
2022-11-07T09:55:57.116Z,13.31
2022-11-07T09:58:29.773Z,13.34
2022-11-07T10:01:00.130Z,13.41
2022-11-07T10:03:27.458Z,13.50
2022-11-07T10:06:06.640Z,13.49
2022-11-07T10:12:12.457Z,13.61
2022-11-07T10:15:07.111Z,13.51
2022-11-07T10:17:56.166Z,13.52
2022-11-07T10:20:28.808Z,13.50
2022-11-07T10:23:19.671Z,13.46
2022-11-07T10:25:53.685Z,13.51
2022-11-07T10:28:21.935Z,13.28
2022-11-07T10:30:51.367Z,13.09
2022-11-07T10:33:21.466Z,13.19
2022-11-07T10:35:48.926Z,13.34
2022-11-07T10:38:29.912Z,13.34
2022-11-07T10:40:56.808Z,13.41
2022-11-07T10:43:34.342Z,13.42
2022-11-07T10:46:07.156Z,13.38
2022-11-07T10:48:33.646Z,13.25
2022-11-07T10:51:00.149Z,13.25
2022-11-07T10:53:26.648Z,13.29
2022-11-07T10:55:54.415Z,13.28
2022-11-07T10:58:28.874Z,13.38
2022-11-07T11:00:59.361Z,13.37
2022-11-07T11:03:43.332Z,13.39
2022-11-07T11:06:12.074Z,13.33
2022-11-07T11:08:39.239Z,13.60
2022-11-07T11:11:20.940Z,13.78
2022-11-07T11:13:48.533Z,13.75
2022-11-07T11:16:27.925Z,13.87
2022-11-07T11:18:57.477Z,13.77
2022-11-07T11:21:24.426Z,13.83
2022-11-07T11:23:52.301Z,13.85
2022-11-07T11:26:34.150Z,13.79
2022-11-07T11:29:07.447Z,13.86
2022-11-07T11:31:40.809Z,14.00
2022-11-07T11:34:17.516Z,14.13
2022-11-07T11:37:13.909Z,14.00
2022-11-07T11:39:57.949Z,14.13
2022-11-07T11:42:55.187Z,13.85
2022-11-07T11:45:51.026Z,14.05
2022-11-07T11:48:40.175Z,14.21
2022-11-07T11:51:19.694Z,14.16
2022-11-07T11:53:46.208Z,14.19
2022-11-07T11:56:39.344Z,14.29
2022-11-07T11:59:21.019Z,14.30
2022-11-07T12:02:05.695Z,14.51
2022-11-07T12:04:51.310Z,14.62
2022-11-07T12:07:48.449Z,14.76
2022-11-07T12:10:30.197Z,14.58
2022-11-07T12:13:09.365Z,14.75
2022-11-07T12:15:51.300Z,14.90
2022-11-07T12:18:19.727Z,14.96
2022-11-07T12:21:17.740Z,14.65
2022-11-07T12:23:51.203Z,14.59
2022-11-07T12:26:36.184Z,14.81
2022-11-07T12:29:29.134Z,14.76
2022-11-07T12:32:19.758Z,14.93
2022-11-07T12:34:52.424Z,15.07
2022-11-07T12:37:30.222Z,15.02
2022-11-07T12:40:17.270Z,15.04
2022-11-07T12:43:15.610Z,14.96
2022-11-07T12:45:48.875Z,14.96
2022-11-07T12:48:40.631Z,15.02
2022-11-07T12:51:35.104Z,15.15
2022-11-07T12:54:27.079Z,15.24
2022-11-07T12:56:54.402Z,15.36
2022-11-07T12:59:28.869Z,15.21
2022-11-07T13:02:16.685Z,15.32
2022-11-07T13:04:54.099Z,15.23
2022-11-07T13:07:28.688Z,15.09
2022-11-07T13:10:08.402Z,14.90
2022-11-07T13:12:40.013Z,14.87
2022-11-07T13:15:09.383Z,15.04
2022-11-07T13:17:44.486Z,15.25
2022-11-07T13:20:31.093Z,15.41
2022-11-07T13:23:00.129Z,15.43
2022-11-07T13:25:29.033Z,15.55
2022-11-07T13:27:55.451Z,15.46
2022-11-07T13:30:36.676Z,15.59
2022-11-07T13:33:03.951Z,15.70
2022-11-07T13:35:32.712Z,15.72
2022-11-07T13:38:09.857Z,15.81
2022-11-07T13:40:39.388Z,15.64
2022-11-07T13:43:15.671Z,15.81
2022-11-07T13:45:50.048Z,15.95
2022-11-07T13:48:24.241Z,15.74
2022-11-07T13:51:28.809Z,15.59
2022-11-07T13:54:01.306Z,15.72
2022-11-07T13:56:29.737Z,15.75
2022-11-07T13:58:56.527Z,15.70
2022-11-07T14:01:23.102Z,15.61
2022-11-07T14:03:49.660Z,15.60
2022-11-07T14:06:16.971Z,15.53
2022-11-07T14:08:47.642Z,15.65
2022-11-07T14:11:19.701Z,15.75
2022-11-07T14:13:48.224Z,15.58
2022-11-07T14:16:23.501Z,15.46
2022-11-07T14:18:57.148Z,15.64
2022-11-07T14:21:32.742Z,15.73
2022-11-07T14:23:59.841Z,15.46
2022-11-07T14:26:31.488Z,15.46
2022-11-07T14:28:58.837Z,15.64
2022-11-07T14:31:30.480Z,15.62
2022-11-07T14:34:16.941Z,15.56
2022-11-07T14:36:47.701Z,15.97
2022-11-07T14:39:15.897Z,16.57
2022-11-07T14:41:43.890Z,16.70
2022-11-07T14:44:15.993Z,16.97
2022-11-07T14:46:43.168Z,17.72
2022-11-07T14:49:18.734Z,17.71
2022-11-07T14:51:45.365Z,17.67
2022-11-07T14:54:16.662Z,17.39
2022-11-07T14:56:45.638Z,17.24
2022-11-07T14:59:14.716Z,17.06
2022-11-07T15:01:57.567Z,16.49
2022-11-07T15:04:35.601Z,16.24
2022-11-07T15:07:32.201Z,16.21
2022-11-07T15:10:11.232Z,16.15
2022-11-07T15:12:49.291Z,16.17
2022-11-07T15:15:24.317Z,15.85
2022-11-07T15:17:53.158Z,15.82
2022-11-07T15:20:21.765Z,16.57
2022-11-07T15:22:48.319Z,16.43
2022-11-07T15:25:34.807Z,16.35
2022-11-07T15:28:22.450Z,16.22
2022-11-07T15:30:51.586Z,16.09
2022-11-07T15:33:18.917Z,15.74
2022-11-07T15:35:47.425Z,15.38
2022-11-07T15:38:19.415Z,14.91
2022-11-07T15:40:46.593Z,14.75
2022-11-07T15:43:13.106Z,14.73
2022-11-07T15:45:40.447Z,14.67
2022-11-07T15:48:07.344Z,14.76
2022-11-07T15:50:34.323Z,14.74
2022-11-07T15:53:00.917Z,14.53
2022-11-07T15:55:28.495Z,14.49
2022-11-07T15:57:55.252Z,14.48
2022-11-07T16:00:28.441Z,14.35
2022-11-07T16:02:54.989Z,14.17
2022-11-07T16:05:21.954Z,13.94
2022-11-07T16:07:48.497Z,13.85
2022-11-07T16:10:23.197Z,13.70
2022-11-07T16:12:50.102Z,13.59
2022-11-07T16:15:18.267Z,13.47
2022-11-07T16:17:44.947Z,13.34
2022-11-07T16:20:15.713Z,13.18
2022-11-07T16:22:46.321Z,13.05
2022-11-07T16:25:22.486Z,13.01
2022-11-07T16:27:51.320Z,12.95
2022-11-07T16:30:18.669Z,12.86
2022-11-07T16:32:45.270Z,12.81
2022-11-07T16:35:11.783Z,12.70
2022-11-07T16:37:38.439Z,12.62
2022-11-07T16:40:07.041Z,12.53
2022-11-07T16:42:33.517Z,12.43
2022-11-07T16:45:00.009Z,12.49
2022-11-07T16:47:26.804Z,12.36
2022-11-07T16:49:56.062Z,11.96
2022-11-07T16:52:22.686Z,11.84
2022-11-07T16:54:52.235Z,11.91
2022-11-07T16:57:18.744Z,11.82
2022-11-07T16:59:46.588Z,11.78
2022-11-07T17:02:27.029Z,11.73
2022-11-07T17:04:54.307Z,11.87
2022-11-07T17:07:22.673Z,11.82
2022-11-07T17:09:49.435Z,11.73
2022-11-07T17:12:22.676Z,11.73
2022-11-07T17:14:49.627Z,11.69
2022-11-07T17:17:20.159Z,11.63
2022-11-07T17:19:47.164Z,11.53
2022-11-07T17:22:16.459Z,11.57
2022-11-07T17:24:43.593Z,11.50
2022-11-07T17:27:21.720Z,11.46
2022-11-07T17:29:48.590Z,11.46
2022-11-07T17:32:15.031Z,11.50
2022-11-07T17:34:41.755Z,11.37
2022-11-07T17:37:13.825Z,11.27
2022-11-07T17:39:40.679Z,11.23
2022-11-07T17:42:08.688Z,10.98
2022-11-07T17:44:38.527Z,10.90
2022-11-07T17:47:05.606Z,10.82
2022-11-07T17:49:32.199Z,10.73
2022-11-07T17:51:58.863Z,10.69
2022-11-07T17:54:29.315Z,10.58
2022-11-07T17:56:56.215Z,10.56
2022-11-07T17:59:23.092Z,10.60
2022-11-07T18:01:49.679Z,10.52
2022-11-07T18:04:16.316Z,10.44
2022-11-07T18:06:43.055Z,10.35
2022-11-07T18:09:14.100Z,10.21
2022-11-07T18:11:40.639Z,10.26
2022-11-07T18:14:07.102Z,10.38
2022-11-07T18:16:34.924Z,10.35
2022-11-07T18:19:02.057Z,10.20
2022-11-07T18:21:33.354Z,10.22
2022-11-07T18:24:00.622Z,10.15
2022-11-07T18:26:29.523Z,10.21
2022-11-07T18:29:03.973Z,10.20
2022-11-07T18:31:33.444Z,10.14
2022-11-07T18:34:01.224Z,10.05
2022-11-07T18:36:28.201Z,9.99
2022-11-07T18:38:54.993Z,9.89
2022-11-07T18:41:23.093Z,9.98
2022-11-07T18:43:49.758Z,9.88
2022-11-07T18:46:19.640Z,9.94
2022-11-07T18:48:46.463Z,9.83
2022-11-07T18:51:16.845Z,9.82
2022-11-07T18:53:43.487Z,9.92
2022-11-07T18:56:11.942Z,9.87
2022-11-07T18:58:39.293Z,9.92
2022-11-07T19:01:08.038Z,9.90
2022-11-07T19:03:35.598Z,9.88
2022-11-07T19:06:10.355Z,9.75
2022-11-07T19:08:38.949Z,9.80
2022-11-07T19:11:08.591Z,9.80
2022-11-07T19:13:40.729Z,9.86
2022-11-07T19:16:09.452Z,9.82
2022-11-07T19:18:36.098Z,9.90
2022-11-07T19:21:03.124Z,9.91
2022-11-07T19:23:30.407Z,9.94
2022-11-07T19:25:57.074Z,10.01
2022-11-07T19:28:23.574Z,10.06
2022-11-07T19:30:50.327Z,9.93
2022-11-07T19:33:17.105Z,9.91
2022-11-07T19:35:47.016Z,9.94
2022-11-07T19:38:14.619Z,9.87
2022-11-07T19:40:41.590Z,9.96
2022-11-07T19:43:08.141Z,10.02
2022-11-07T19:45:34.650Z,10.03
2022-11-07T19:48:01.140Z,9.99
2022-11-07T19:50:27.625Z,9.99
2022-11-07T19:52:54.103Z,9.91
2022-11-07T19:55:20.585Z,10.00
2022-11-07T19:57:49.547Z,9.91
2022-11-07T20:00:16.514Z,9.76
2022-11-07T20:02:46.514Z,9.79
2022-11-07T20:05:13.193Z,9.89
2022-11-07T20:07:39.733Z,9.81
2022-11-07T20:10:06.770Z,9.90
2022-11-07T20:12:33.542Z,9.73
2022-11-07T20:15:00.377Z,9.70
2022-11-07T20:17:26.878Z,9.79
2022-11-07T20:19:53.340Z,9.75
2022-11-07T20:22:19.855Z,9.67
2022-11-07T20:24:46.611Z,9.86
2022-11-07T20:27:13.083Z,9.94
2022-11-07T20:29:39.547Z,9.89
2022-11-07T20:32:06.044Z,9.92
2022-11-07T20:34:32.519Z,9.87
2022-11-07T20:36:59.262Z,9.81
2022-11-07T20:39:25.764Z,9.67
2022-11-07T20:41:52.353Z,9.68
2022-11-07T20:44:19.321Z,9.73
2022-11-07T20:46:46.370Z,9.81
2022-11-07T20:49:14.863Z,9.90
2022-11-07T20:51:41.756Z,9.88
2022-11-07T20:54:12.446Z,9.92
2022-11-07T20:56:38.900Z,9.93
2022-11-07T20:59:05.846Z,9.89
2022-11-07T21:01:33.021Z,9.91
2022-11-07T21:03:59.645Z,9.95
2022-11-07T21:06:26.291Z,9.94
2022-11-07T21:08:52.788Z,9.93
2022-11-07T21:11:19.558Z,9.88
2022-11-07T21:13:51.516Z,9.78
2022-11-07T21:16:21.368Z,9.63
2022-11-07T21:18:48.378Z,9.48
2022-11-07T21:21:20.216Z,9.29
2022-11-07T21:23:50.923Z,9.32
2022-11-07T21:26:20.409Z,9.37
2022-11-07T21:28:47.084Z,9.35
2022-11-07T21:31:19.815Z,9.45
2022-11-07T21:33:46.505Z,9.34
2022-11-07T21:36:15.798Z,9.27
2022-11-07T21:38:42.566Z,9.25
2022-11-07T21:41:12.003Z,9.17
2022-11-07T21:43:39.706Z,9.14
2022-11-07T21:46:33.073Z,9.17
2022-11-07T21:48:59.785Z,9.03
2022-11-07T21:51:29.201Z,9.09
2022-11-07T21:53:58.538Z,9.10
2022-11-07T21:56:27.549Z,8.97
2022-11-07T21:58:56.628Z,8.85
2022-11-07T22:01:24.261Z,8.92
2022-11-07T22:04:06.089Z,8.97
2022-11-07T22:06:36.290Z,9.03
2022-11-07T22:09:03.961Z,9.09
2022-11-07T22:11:30.482Z,9.00
2022-11-07T22:13:57.141Z,9.20
2022-11-07T22:16:23.654Z,9.28
2022-11-07T22:18:50.349Z,9.29
2022-11-07T22:21:20.186Z,9.29
2022-11-07T22:23:47.390Z,9.07
2022-11-07T22:26:17.093Z,9.03
2022-11-07T22:28:46.029Z,9.05
2022-11-07T22:31:15.694Z,8.93
2022-11-07T22:33:42.358Z,9.07
2022-11-07T22:36:10.314Z,9.24
2022-11-07T22:38:37.671Z,9.31
2022-11-07T22:41:14.014Z,9.30
2022-11-07T22:43:41.150Z,9.17
2022-11-07T22:46:12.432Z,9.33
2022-11-07T22:48:39.634Z,9.48
2022-11-07T22:51:18.326Z,9.41
2022-11-07T22:53:44.894Z,9.43
2022-11-07T22:56:14.420Z,9.36
2022-11-07T22:58:41.958Z,9.34
2022-11-07T23:01:18.415Z,9.24
2022-11-07T23:03:45.498Z,9.22
2022-11-07T23:06:15.008Z,9.13
2022-11-07T23:08:47.954Z,9.01
2022-11-07T23:14:07.671Z,8.87
2022-11-07T23:16:36.915Z,8.84
2022-11-07T23:19:06.502Z,8.79
2022-11-07T23:21:36.690Z,8.88
2022-11-07T23:24:04.008Z,8.93
2022-11-07T23:26:31.192Z,8.92
2022-11-07T23:28:57.743Z,9.07
2022-11-07T23:31:24.327Z,9.02
2022-11-07T23:33:51.065Z,8.95
2022-11-07T23:36:17.596Z,8.92
2022-11-07T23:38:44.244Z,8.96
2022-11-07T23:41:15.533Z,8.93
2022-11-07T23:43:42.965Z,8.87
2022-11-07T23:46:12.514Z,8.75
2022-11-07T23:48:38.993Z,8.63
2022-11-07T23:51:09.231Z,8.69
2022-11-07T23:53:38.606Z,8.69
2022-11-07T23:56:06.155Z,8.79
2022-11-07T23:58:32.703Z,8.74
